Time;durP1;ratioP1;P1;durP2;ratioP2;P2;SDS_P1;SDS_P2;PMS_P1;PMS_P2;Temp;Humidity;BMP_temperature;BMP_pressure;BME280_temperature;BME280_humidity;BME280_pressure;Samples;Min_cycle;Max_cycle;Signal;HPM_P1;HPM_P2
2022/10/17 00:02:16;;;;;;;15.50;10.13;;;12.10;99.90;;;;;;5092651;28;20523;-76
2022/10/17 00:04:43;;;;;;;13.37;10.43;;;12.00;99.90;;;;;;5092466;28;20220;-76
2022/10/17 00:07:10;;;;;;;13.57;10.00;;;12.00;99.90;;;;;;5092442;28;20223;-75
2022/10/17 00:09:36;;;;;;;15.10;10.27;;;12.00;99.90;;;;;;5092370;28;20200;-76
2022/10/17 00:12:05;;;;;;;12.97;9.43;;;12.00;99.90;;;;;;5092778;28;20204;-75
2022/10/17 00:14:32;;;;;;;12.70;9.43;;;11.90;99.90;;;;;;5092400;28;20278;-75
2022/10/17 00:16:58;;;;;;;11.00;9.67;;;11.90;99.90;;;;;;5092714;28;20204;-75
2022/10/17 00:19:25;;;;;;;11.77;9.53;;;11.70;99.90;;;;;;5092252;28;20537;-75
2022/10/17 00:21:52;;;;;;;12.60;9.63;;;11.70;99.90;;;;;;5095635;28;20245;-75
2022/10/17 00:24:18;;;;;;;12.80;9.10;;;11.70;99.90;;;;;;5096207;28;20282;-75
2022/10/17 00:26:45;;;;;;;10.87;8.50;;;11.60;99.90;;;;;;5096036;28;20228;-75
2022/10/17 00:29:13;;;;;;;9.83;8.50;;;11.70;99.90;;;;;;5096007;28;20253;-75
2022/10/17 00:31:39;;;;;;;10.87;8.70;;;11.70;99.90;;;;;;5095948;28;20204;-75
2022/10/17 00:34:06;;;;;;;17.60;8.90;;;11.70;99.90;;;;;;5095915;28;20246;-75
2022/10/17 00:36:33;;;;;;;9.53;8.30;;;11.80;99.90;;;;;;5095795;28;20204;-75
2022/10/17 00:39:00;;;;;;;10.00;9.00;;;11.70;99.90;;;;;;5095921;28;20192;-75
2022/10/17 00:41:30;;;;;;;12.10;8.47;;;11.70;99.90;;;;;;5095922;28;20258;-75
2022/10/17 00:43:59;;;;;;;13.07;8.90;;;11.70;99.90;;;;;;5095788;28;20246;-75
2022/10/17 00:46:29;;;;;;;13.00;9.40;;;11.80;99.90;;;;;;5095642;28;20220;-75
2022/10/17 00:48:58;;;;;;;14.00;9.30;;;11.70;99.90;;;;;;5095551;28;20200;-76
2022/10/17 00:51:31;;;;;;;12.23;9.27;;;11.70;99.90;;;;;;5095815;28;20254;-75
2022/10/17 00:53:58;;;;;;;12.70;9.13;;;11.70;99.90;;;;;;5095679;28;20192;-75
2022/10/17 00:56:24;;;;;;;19.03;10.93;;;11.70;99.90;;;;;;5095576;28;20265;-75
2022/10/17 00:58:51;;;;;;;15.93;9.77;;;11.70;99.90;;;;;;5095447;28;20200;-75
2022/10/17 01:01:18;;;;;;;18.67;10.67;;;11.60;99.90;;;;;;5095421;28;20226;-75
2022/10/17 01:03:46;;;;;;;19.13;10.03;;;11.60;99.90;;;;;;5095309;28;20212;-75
2022/10/17 01:06:13;;;;;;;17.13;10.07;;;11.50;99.90;;;;;;5095418;28;20228;-75
2022/10/17 01:08:40;;;;;;;23.30;12.40;;;11.50;99.90;;;;;;5095379;28;20196;-75
2022/10/17 01:11:21;;;;;;;15.87;10.10;;;11.50;99.90;;;;;;5095109;28;20245;-75
2022/10/17 01:13:53;;;;;;;14.17;9.93;;;11.40;99.90;;;;;;5095086;28;20204;-75
2022/10/17 01:16:32;;;;;;;14.17;9.63;;;11.40;99.90;;;;;;5095359;28;20246;-75
2022/10/17 01:19:19;;;;;;;19.77;9.80;;;11.40;99.90;;;;;;5095221;28;20253;-75
2022/10/17 01:21:55;;;;;;;17.00;10.57;;;11.40;99.90;;;;;;5095066;28;20208;-75
2022/10/17 01:24:47;;;;;;;19.20;10.90;;;11.40;99.90;;;;;;5094898;28;20196;-75
2022/10/17 01:27:41;;;;;;;11.50;9.40;;;11.40;99.90;;;;;;5095067;28;20291;-75
2022/10/17 01:30:43;;;;;;;12.17;9.33;;;11.30;99.90;;;;;;5094766;28;20678;-75
2022/10/17 01:33:15;;;;;;;13.40;9.57;;;11.10;99.90;;;;;;5095003;28;20560;-75
2022/10/17 01:35:48;;;;;;;12.73;9.07;;;11.20;99.90;;;;;;5094937;28;20208;-75
2022/10/17 01:38:19;;;;;;;13.70;9.67;;;11.10;99.90;;;;;;5094848;28;20196;-75
2022/10/17 01:40:50;;;;;;;16.67;9.60;;;11.10;99.90;;;;;;5094677;28;20204;-75
2022/10/17 01:43:23;;;;;;;12.03;9.03;;;11.10;99.90;;;;;;5094554;28;20210;-75
2022/10/17 01:45:56;;;;;;;14.60;10.03;;;11.10;99.90;;;;;;5094618;28;20269;-75
2022/10/17 01:48:27;;;;;;;16.03;10.00;;;11.00;99.90;;;;;;5094593;28;20196;-75
2022/10/17 01:51:00;;;;;;;16.47;10.23;;;11.10;99.90;;;;;;5094465;28;20250;-75
2022/10/17 01:53:29;;;;;;;14.87;11.07;;;11.10;99.90;;;;;;5094392;28;20192;-75
2022/10/17 01:56:00;;;;;;;14.83;9.67;;;11.00;99.90;;;;;;5094491;28;20245;-75
2022/10/17 01:58:30;;;;;;;16.47;11.33;;;11.00;99.90;;;;;;5094417;28;20207;-75
2022/10/17 02:00:59;;;;;;;18.77;9.73;;;11.00;99.90;;;;;;5094118;28;20679;-75
2022/10/17 02:03:28;;;;;;;13.20;9.37;;;10.90;99.90;;;;;;5094148;28;20199;-75
2022/10/17 02:05:55;;;;;;;13.20;9.53;;;10.80;99.90;;;;;;5094044;28;20236;-75
2022/10/17 02:08:26;;;;;;;17.53;10.13;;;10.80;99.90;;;;;;5094027;28;20200;-75
2022/10/17 02:10:58;;;;;;;13.70;9.77;;;10.70;99.90;;;;;;5094174;28;20196;-75
2022/10/17 02:13:39;;;;;;;11.10;9.47;;;10.70;99.90;;;;;;5094072;28;20249;-75
2022/10/17 02:16:17;;;;;;;13.30;9.63;;;10.60;99.90;;;;;;5093952;28;20246;-75
2022/10/17 02:19:05;;;;;;;12.50;9.33;;;10.70;99.90;;;;;;5093859;28;20245;-75
2022/10/17 02:21:38;;;;;;;11.67;8.53;;;10.60;99.90;;;;;;5093946;28;20200;-75
2022/10/17 02:24:15;;;;;;;10.87;9.00;;;10.60;99.90;;;;;;5094120;28;20237;-75
2022/10/17 02:26:49;;;;;;;12.30;8.80;;;10.60;99.90;;;;;;5093668;28;20219;-75
2022/10/17 02:29:19;;;;;;;13.03;9.33;;;10.50;99.90;;;;;;5093673;28;20204;-75
2022/10/17 02:31:49;;;;;;;16.23;9.70;;;10.50;99.90;;;;;;5093620;28;20204;-75
2022/10/17 02:34:22;;;;;;;12.03;8.73;;;10.50;99.90;;;;;;5093768;28;20265;-76
2022/10/17 02:36:54;;;;;;;12.20;9.07;;;10.50;99.90;;;;;;5093601;28;20258;-75
2022/10/17 02:39:23;;;;;;;13.20;9.30;;;10.60;99.90;;;;;;5093496;28;20261;-75
2022/10/17 02:41:52;;;;;;;13.07;9.67;;;10.60;99.90;;;;;;5093600;28;20200;-75
2022/10/17 02:44:20;;;;;;;19.07;10.73;;;10.60;99.90;;;;;;5093159;28;20245;-75
2022/10/17 02:46:57;;;;;;;13.17;10.00;;;10.60;99.90;;;;;;5093401;28;20227;-75
2022/10/17 02:49:30;;;;;;;13.10;10.07;;;10.50;99.90;;;;;;5093406;28;20253;-73
2022/10/17 02:52:02;;;;;;;15.60;10.10;;;10.40;99.90;;;;;;5093242;28;20200;-75
2022/10/17 02:54:36;;;;;;;14.73;10.60;;;10.30;99.90;;;;;;5093297;28;20651;-75
2022/10/17 02:57:10;;;;;;;13.37;8.93;;;10.30;99.90;;;;;;5093179;28;20546;-75
2022/10/17 02:59:37;;;;;;;12.97;10.07;;;10.30;99.90;;;;;;5093296;28;20195;-75
2022/10/17 03:02:05;;;;;;;14.93;9.27;;;10.30;99.90;;;;;;5093162;28;20250;-75
2022/10/17 03:04:33;;;;;;;14.33;9.10;;;10.40;99.90;;;;;;5093061;28;20196;-75
2022/10/17 03:07:00;;;;;;;13.90;10.33;;;10.40;99.90;;;;;;5093149;28;20277;-75
2022/10/17 03:09:27;;;;;;;12.03;9.50;;;10.50;99.90;;;;;;5093287;28;20223;-75
2022/10/17 03:11:54;;;;;;;14.67;9.70;;;10.40;99.90;;;;;;5093093;28;20223;-76
2022/10/17 03:14:20;;;;;;;11.43;9.23;;;10.40;99.90;;;;;;5092870;28;20227;-75
2022/10/17 03:16:47;;;;;;;12.13;10.20;;;10.30;99.90;;;;;;5092913;28;20265;-73
2022/10/17 03:19:14;;;;;;;12.20;9.53;;;10.20;99.90;;;;;;5092871;28;20344;-73
2022/10/17 03:21:42;;;;;;;17.30;10.07;;;10.30;99.90;;;;;;5093116;28;20598;-73
2022/10/17 03:24:08;;;;;;;11.20;9.17;;;10.20;99.90;;;;;;5092816;28;20717;-74
2022/10/17 03:26:35;;;;;;;11.30;9.03;;;10.20;99.90;;;;;;5092848;28;20223;-73
2022/10/17 03:29:02;;;;;;;12.30;9.40;;;10.10;99.90;;;;;;5092873;28;20207;-74
2022/10/17 03:31:28;;;;;;;14.87;10.23;;;10.10;99.90;;;;;;5092747;28;20253;-74
2022/10/17 03:33:55;;;;;;;12.07;10.43;;;10.10;99.90;;;;;;5093018;28;20196;-73
2022/10/17 03:36:22;;;;;;;13.30;10.73;;;10.20;99.90;;;;;;5092865;28;20245;-74
2022/10/17 03:38:53;;;;;;;15.30;11.80;;;10.20;99.90;;;;;;5092777;28;20192;-74
2022/10/17 03:41:20;;;;;;;14.63;12.43;;;10.00;99.90;;;;;;5092804;28;20197;-74
2022/10/17 03:43:47;;;;;;;14.50;11.23;;;10.00;99.90;;;;;;5092705;28;20602;-74
2022/10/17 03:46:13;;;;;;;15.27;11.60;;;10.00;99.90;;;;;;5092522;28;20683;-74
2022/10/17 03:48:40;;;;;;;19.20;11.00;;;10.00;99.90;;;;;;5092893;28;20252;-74
2022/10/17 03:51:09;;;;;;;12.23;10.30;;;9.90;99.90;;;;;;5092831;28;20192;-74
2022/10/17 03:53:36;;;;;;;15.50;10.27;;;9.80;99.90;;;;;;5092580;28;20856;-74
2022/10/17 03:56:11;;;;;;;14.43;10.83;;;9.80;99.90;;;;;;5096407;28;20668;-74
2022/10/17 03:58:39;;;;;;;18.23;11.90;;;9.80;99.90;;;;;;5096530;28;20627;-73
2022/10/17 04:01:06;;;;;;;14.83;12.23;;;9.80;99.90;;;;;;5096736;28;20606;-74
2022/10/17 04:03:33;;;;;;;16.03;10.80;;;9.80;99.90;;;;;;5096649;28;20196;-74
2022/10/17 04:06:00;;;;;;;15.43;11.13;;;9.80;99.90;;;;;;5096446;28;20265;-73
2022/10/17 04:08:27;;;;;;;16.60;11.93;;;9.80;99.90;;;;;;5096424;28;20275;-74
2022/10/17 04:10:58;;;;;;;14.37;11.27;;;9.80;99.90;;;;;;5096266;28;20249;-74
2022/10/17 04:13:27;;;;;;;15.67;10.60;;;9.80;99.90;;;;;;5096363;28;20651;-73
2022/10/17 04:15:54;;;;;;;13.67;10.30;;;9.80;99.90;;;;;;5096260;28;20224;-73
2022/10/17 04:18:21;;;;;;;12.40;9.77;;;9.80;99.90;;;;;;5096564;28;20192;-74
2022/10/17 04:20:48;;;;;;;14.93;10.03;;;9.80;99.90;;;;;;5096008;28;20196;-73
2022/10/17 04:23:14;;;;;;;13.23;9.77;;;9.90;99.90;;;;;;5096160;28;20246;-74
2022/10/17 04:25:41;;;;;;;14.47;9.87;;;9.80;99.90;;;;;;5096149;28;20196;-73
2022/10/17 04:28:08;;;;;;;16.37;11.07;;;9.80;99.90;;;;;;5095885;28;20258;-73
2022/10/17 04:30:36;;;;;;;18.87;12.97;;;9.90;99.90;;;;;;5096092;28;20196;-74
2022/10/17 04:33:03;;;;;;;15.80;12.17;;;9.90;99.90;;;;;;5095860;28;20660;-73
2022/10/17 04:35:30;;;;;;;13.93;11.70;;;9.90;99.90;;;;;;5095954;28;20606;-73
2022/10/17 04:37:56;;;;;;;18.47;13.17;;;9.80;99.90;;;;;;5095867;28;20208;-73
2022/10/17 04:40:23;;;;;;;18.00;12.20;;;9.80;99.90;;;;;;5095857;28;20652;-73
2022/10/17 04:42:51;;;;;;;19.50;12.50;;;9.80;99.90;;;;;;5095723;28;20270;-74
2022/10/17 04:45:18;;;;;;;16.20;11.33;;;9.80;99.90;;;;;;5095872;28;20196;-74
2022/10/17 04:47:46;;;;;;;21.00;12.93;;;9.70;99.90;;;;;;5095668;28;20243;-74
2022/10/17 04:50:12;;;;;;;20.03;12.33;;;9.70;99.90;;;;;;5095608;28;20200;-74
2022/10/17 04:52:39;;;;;;;22.17;13.30;;;9.80;99.90;;;;;;5095531;28;20193;-73
2022/10/17 04:55:06;;;;;;;24.83;14.07;;;9.80;99.90;;;;;;5095690;28;20196;-73
2022/10/17 04:57:35;;;;;;;23.30;14.20;;;9.80;99.90;;;;;;5095390;28;20729;-73
2022/10/17 05:00:02;;;;;;;25.43;15.23;;;9.70;99.90;;;;;;5095508;28;20731;-73
2022/10/17 05:02:28;;;;;;;27.77;14.93;;;9.70;99.90;;;;;;5095479;28;20200;-73
2022/10/17 05:04:56;;;;;;;22.67;15.17;;;9.70;99.90;;;;;;5095327;28;20204;-74
2022/10/17 05:07:23;;;;;;;24.40;14.93;;;9.70;99.90;;;;;;5094478;28;20683;-73
2022/10/17 05:09:50;;;;;;;24.47;15.33;;;9.80;99.90;;;;;;5095517;28;20204;-73
2022/10/17 05:12:16;;;;;;;26.33;15.10;;;9.80;99.90;;;;;;5095258;28;20273;-73
2022/10/17 05:14:43;;;;;;;25.50;14.03;;;9.80;99.90;;;;;;5095144;28;20625;-73
2022/10/17 05:17:09;;;;;;;27.60;15.60;;;9.80;99.90;;;;;;5095202;28;20200;-73
2022/10/17 05:19:36;;;;;;;24.93;15.63;;;9.70;99.90;;;;;;5095040;28;20211;-73
2022/10/17 05:22:04;;;;;;;25.17;14.37;;;9.70;99.90;;;;;;5094832;28;20247;-73
2022/10/17 05:24:31;;;;;;;21.50;13.20;;;9.80;99.90;;;;;;5095015;28;20483;-73
2022/10/17 05:26:57;;;;;;;18.53;12.67;;;9.70;99.90;;;;;;5094929;28;20228;-73
2022/10/17 05:29:24;;;;;;;18.20;11.47;;;9.80;99.90;;;;;;5094851;28;20644;-73
2022/10/17 05:31:51;;;;;;;18.03;11.67;;;9.80;99.90;;;;;;5094706;28;20200;-72
2022/10/17 05:34:17;;;;;;;20.80;11.40;;;9.80;99.90;;;;;;5094612;28;20192;-73
2022/10/17 05:36:44;;;;;;;19.77;10.37;;;9.80;99.90;;;;;;5094461;28;20733;-72
2022/10/17 05:39:18;;;;;;;17.60;10.40;;;9.70;99.90;;;;;;5094487;28;20204;-73
2022/10/17 05:41:44;;;;;;;16.87;10.37;;;9.70;99.90;;;;;;5094624;28;20197;-72
2022/10/17 05:44:12;;;;;;;19.73;11.43;;;9.70;99.90;;;;;;5094658;28;20632;-72
2022/10/17 05:46:38;;;;;;;15.23;10.63;;;9.70;99.90;;;;;;5094303;28;20226;-72
2022/10/17 05:49:05;;;;;;;18.47;12.23;;;9.70;99.90;;;;;;5094020;28;20200;-73
2022/10/17 05:51:33;;;;;;;21.20;12.13;;;9.70;99.90;;;;;;5094205;28;20227;-73
2022/10/17 05:54:00;;;;;;;18.80;11.40;;;9.70;99.90;;;;;;5094442;28;20226;-72
2022/10/17 05:56:28;;;;;;;21.83;11.83;;;9.70;99.90;;;;;;5094322;28;20204;-72
2022/10/17 05:58:55;;;;;;;16.93;11.63;;;9.70;99.90;;;;;;5094216;28;20246;-73
2022/10/17 06:01:21;;;;;;;21.63;11.17;;;9.70;99.90;;;;;;5094110;28;20196;-72
2022/10/17 06:03:48;;;;;;;19.73;12.63;;;9.70;99.90;;;;;;5093908;28;20199;-73
2022/10/17 06:06:15;;;;;;;17.57;11.67;;;9.80;99.90;;;;;;5094321;28;20200;-72
2022/10/17 06:08:42;;;;;;;17.67;11.73;;;9.90;99.90;;;;;;5094416;28;20196;-72
2022/10/17 06:11:09;;;;;;;18.13;12.17;;;9.90;99.90;;;;;;5094024;28;20203;-73
2022/10/17 06:13:37;;;;;;;16.50;11.40;;;10.00;99.90;;;;;;5094088;28;20208;-73
2022/10/17 06:16:04;;;;;;;18.17;11.47;;;10.10;99.90;;;;;;5093815;28;20226;-73
2022/10/17 06:18:31;;;;;;;13.87;10.50;;;10.20;99.90;;;;;;5093167;28;20204;-73
2022/10/17 06:21:03;;;;;;;13.43;11.07;;;10.20;99.90;;;;;;5093756;28;20725;-72
2022/10/17 06:23:30;;;;;;;13.00;11.10;;;10.30;99.90;;;;;;5093860;28;20245;-72
2022/10/17 06:25:59;;;;;;;17.20;11.43;;;10.30;99.90;;;;;;5093786;28;20251;-73
2022/10/17 06:28:26;;;;;;;16.27;11.17;;;10.40;99.90;;;;;;5093437;28;20756;-73
2022/10/17 06:30:54;;;;;;;13.90;11.13;;;10.40;99.90;;;;;;5093841;28;20196;-73
2022/10/17 06:33:22;;;;;;;16.47;11.50;;;10.50;99.90;;;;;;5093506;28;20652;-72
2022/10/17 06:35:51;;;;;;;14.33;12.27;;;10.60;99.90;;;;;;5093730;28;20200;-73
2022/10/17 06:38:18;;;;;;;15.27;12.43;;;10.70;99.90;;;;;;5093587;28;20277;-73
2022/10/17 06:40:44;;;;;;;14.77;13.20;;;10.80;99.90;;;;;;5093564;28;20200;-74
2022/10/17 06:43:11;;;;;;;17.83;11.73;;;10.90;99.90;;;;;;5093451;28;20196;-73
2022/10/17 06:45:39;;;;;;;15.70;13.27;;;11.00;99.90;;;;;;5093703;28;20192;-74
2022/10/17 06:48:07;;;;;;;15.40;12.70;;;11.10;99.90;;;;;;5093433;28;20232;-73
2022/10/17 06:50:35;;;;;;;15.77;12.70;;;11.20;99.90;;;;;;5093505;28;20234;-73
2022/10/17 06:53:01;;;;;;;16.53;13.53;;;11.30;99.90;;;;;;5093473;28;20254;-73
2022/10/17 06:55:28;;;;;;;19.07;14.60;;;11.30;99.90;;;;;;5093244;28;20200;-73
2022/10/17 06:57:55;;;;;;;20.23;14.90;;;11.50;99.90;;;;;;5093150;28;20234;-73
2022/10/17 07:00:22;;;;;;;28.77;20.80;;;11.50;99.90;;;;;;5093325;28;20207;-73
2022/10/17 07:02:49;;;;;;;28.57;21.47;;;11.50;99.90;;;;;;5093084;28;20663;-73
2022/10/17 07:05:18;;;;;;;22.57;17.27;;;11.60;99.90;;;;;;5092887;28;20272;-73
2022/10/17 07:07:44;;;;;;;19.63;15.27;;;11.70;99.90;;;;;;5092896;28;20598;-73
2022/10/17 07:10:11;;;;;;;22.33;14.47;;;11.80;99.90;;;;;;5092955;28;20207;-73
2022/10/17 07:12:38;;;;;;;17.10;13.60;;;12.00;99.90;;;;;;5093061;28;20200;-73
2022/10/17 07:15:05;;;;;;;18.57;13.60;;;12.10;99.90;;;;;;5092738;28;20289;-73
2022/10/17 07:17:32;;;;;;;19.20;13.50;;;12.20;99.90;;;;;;5093065;28;20196;-72
2022/10/17 07:19:58;;;;;;;23.97;14.10;;;12.30;99.90;;;;;;5092856;28;20571;-72
2022/10/17 07:22:27;;;;;;;22.77;14.93;;;12.40;99.90;;;;;;5092918;28;20291;-73
2022/10/17 07:24:53;;;;;;;27.00;14.60;;;12.50;99.90;;;;;;5092769;28;20204;-73
2022/10/17 07:27:20;;;;;;;29.07;15.23;;;12.60;99.90;;;;;;5092621;28;20349;-73
2022/10/17 07:29:47;;;;;;;23.43;14.60;;;12.80;99.90;;;;;;5096494;28;20230;-73
2022/10/17 07:32:13;;;;;;;25.80;15.07;;;13.00;99.90;;;;;;5099491;28;20704;-73
2022/10/17 07:34:40;;;;;;;19.97;13.83;;;13.10;99.90;;;;;;5099476;28;20250;-73
2022/10/17 07:37:08;;;;;;;22.27;13.83;;;13.30;99.90;;;;;;5099530;28;20261;-74
2022/10/17 07:39:38;;;;;;;18.73;13.37;;;13.50;99.90;;;;;;5099305;28;20540;-73
2022/10/17 07:42:06;;;;;;;18.87;13.27;;;13.60;99.90;;;;;;5099836;28;20196;-73
2022/10/17 07:44:34;;;;;;;23.77;12.73;;;13.80;99.90;;;;;;5099303;28;20559;-73
2022/10/17 07:47:00;;;;;;;18.27;11.20;;;14.00;99.90;;;;;;5099412;28;20197;-72
2022/10/17 07:49:28;;;;;;;15.97;10.90;;;14.10;99.90;;;;;;5099421;28;20249;-74
2022/10/17 07:51:54;;;;;;;18.30;9.80;;;14.20;99.90;;;;;;5099470;28;20207;-74
2022/10/17 07:54:21;;;;;;;18.77;9.20;;;14.40;99.90;;;;;;5099594;28;20250;-74
2022/10/17 07:56:49;;;;;;;14.57;9.03;;;14.60;99.90;;;;;;5099438;28;20196;-74
2022/10/17 07:59:16;;;;;;;12.37;8.07;;;14.70;99.90;;;;;;5099180;28;20211;-74
2022/10/17 08:01:43;;;;;;;12.37;8.13;;;14.90;99.90;;;;;;5099201;28;20201;-74
2022/10/17 08:04:10;;;;;;;14.40;7.77;;;15.10;99.90;;;;;;5099206;28;20659;-74
2022/10/17 08:06:37;;;;;;;9.33;6.87;;;15.20;99.90;;;;;;5099165;28;20250;-74
2022/10/17 08:09:04;;;;;;;7.60;6.80;;;15.40;99.90;;;;;;5099316;28;20220;-74
2022/10/17 08:11:31;;;;;;;12.13;7.43;;;15.70;99.90;;;;;;5099347;28;20254;-75
2022/10/17 08:13:59;;;;;;;11.40;7.63;;;15.90;99.90;;;;;;5099109;28;20232;-75
2022/10/17 08:16:25;;;;;;;14.57;7.07;;;16.10;99.90;;;;;;5099253;28;20253;-74
2022/10/17 08:18:52;;;;;;;11.10;6.60;;;16.30;99.90;;;;;;5099042;28;20211;-74
2022/10/17 08:21:18;;;;;;;7.63;6.07;;;16.50;99.90;;;;;;5099009;28;20200;-74
2022/10/17 08:23:45;;;;;;;7.78;5.68;;;16.80;99.90;;;;;;5099232;28;20200;-73
2022/10/17 08:26:16;;;;;;;7.57;5.70;;;17.00;99.90;;;;;;5099246;28;20200;-73
2022/10/17 08:28:42;;;;;;;12.25;5.72;;;17.20;99.90;;;;;;5099160;28;20224;-74
2022/10/17 08:31:12;;;;;;;11.32;6.35;;;17.60;99.90;;;;;;5099048;28;20199;-73
2022/10/17 08:33:40;;;;;;;8.93;5.63;;;17.80;99.90;;;;;;5099011;28;20609;-74
2022/10/17 08:36:08;;;;;;;10.50;4.93;;;18.00;99.90;;;;;;5099035;28;20253;-74
2022/10/17 08:38:36;;;;;;;9.88;5.25;;;18.20;99.90;;;;;;5099041;28;20204;-74
2022/10/17 08:41:06;;;;;;;7.65;4.80;;;18.60;99.90;;;;;;5096927;28;20205;-73
2022/10/17 08:44:05;;;;;;;12.05;4.75;;;18.80;99.90;;;;;;5095911;28;20257;-75
2022/10/17 08:46:36;;;;;;;7.55;4.20;;;19.00;99.90;;;;;;5095896;28;20219;-74
2022/10/17 08:49:06;;;;;;;5.53;3.63;;;19.20;99.90;;;;;;5095550;28;20635;-74
2022/10/17 08:51:37;;;;;;;4.78;4.25;;;19.20;99.90;;;;;;5095738;28;20226;-74
2022/10/17 08:54:12;;;;;;;7.30;4.15;;;19.20;99.90;;;;;;5095577;28;20352;-74
2022/10/17 08:56:43;;;;;;;5.68;3.83;;;19.80;99.90;;;;;;5095382;28;20552;-74
2022/10/17 08:59:12;;;;;;;6.85;4.35;;;19.90;99.90;;;;;;5095363;28;20731;-74
2022/10/17 09:01:45;;;;;;;8.32;3.90;;;20.30;99.90;;;;;;5095301;28;20614;-74
2022/10/17 09:04:45;;;;;;;6.57;3.75;;;20.60;99.90;;;;;;5095527;28;20533;-74
2022/10/17 09:07:18;;;;;;;6.15;3.78;;;20.70;99.90;;;;;;5090030;28;20234;-74
2022/10/17 09:09:56;;;;;;;6.05;3.45;;;21.10;99.90;;;;;;5095383;28;20605;-74
2022/10/17 09:12:28;;;;;;;6.03;3.88;;;21.40;99.90;;;;;;5095145;28;20716;-74
2022/10/17 09:15:10;;;;;;;4.00;3.13;;;21.50;99.90;;;;;;5095163;28;20269;-74
2022/10/17 09:17:50;;;;;;;6.55;3.75;;;21.70;99.90;;;;;;5095110;28;20208;-75
2022/10/17 09:20:21;;;;;;;4.55;3.47;;;22.00;99.90;;;;;;5094995;28;20200;-75
2022/10/17 09:22:53;;;;;;;5.82;3.10;;;22.20;99.90;;;;;;5095094;28;20257;-74
2022/10/17 09:25:21;;;;;;;6.85;3.10;;;22.40;99.90;;;;;;5095197;28;20253;-76
2022/10/17 09:27:50;;;;;;;4.57;2.83;;;22.40;99.90;;;;;;5094735;28;20319;-75
2022/10/17 09:30:28;;;;;;;3.92;2.70;;;22.20;99.90;;;;;;5095084;28;20677;-75
2022/10/17 09:32:56;;;;;;;7.60;3.03;;;22.00;99.90;;;;;;5094948;28;20200;-75
2022/10/17 09:35:24;;;;;;;7.22;3.00;;;22.00;99.90;;;;;;5094858;28;20200;-74
2022/10/17 09:37:51;;;;;;;3.50;2.80;;;22.40;99.90;;;;;;5094674;28;20200;-75
2022/10/17 09:40:22;;;;;;;4.13;2.90;;;22.50;99.90;;;;;;5094365;28;20192;-75
2022/10/17 09:42:50;;;;;;;4.50;3.03;;;22.40;99.90;;;;;;5094853;28;20651;-75
2022/10/17 09:45:23;;;;;;;5.65;2.70;;;22.50;99.90;;;;;;5094690;28;20218;-75
2022/10/17 09:48:01;;;;;;;4.82;2.70;;;22.40;99.90;;;;;;5094299;28;20731;-74
2022/10/17 09:50:30;;;;;;;5.65;2.70;;;22.20;99.90;;;;;;5094709;28;20192;-76
2022/10/17 09:53:00;;;;;;;4.68;2.58;;;22.50;99.90;;;;;;5094216;28;20200;-75
2022/10/17 09:55:33;;;;;;;2.88;2.30;;;23.30;99.90;;;;;;5094320;28;20203;-76
2022/10/17 09:58:02;;;;;;;5.55;2.50;;;23.70;99.90;;;;;;5094739;28;20207;-76
2022/10/17 10:00:31;;;;;;;3.67;2.75;;;24.30;99.90;;;;;;5094298;28;20196;-76
2022/10/17 10:03:16;;;;;;;4.35;2.60;;;24.10;99.90;;;;;;5094219;28;20196;-76
2022/10/17 10:05:57;;;;;;;6.35;2.67;;;24.50;99.90;;;;;;5094221;28;20249;-76
2022/10/17 10:08:27;;;;;;;4.75;2.50;;;24.40;99.90;;;;;;5094064;28;20224;-76
2022/10/17 10:10:59;;;;;;;5.90;2.75;;;25.00;99.90;;;;;;5094151;28;20590;-76
2022/10/17 10:13:26;;;;;;;6.13;2.30;;;24.90;99.90;;;;;;5094100;28;20246;-76
2022/10/17 10:15:53;;;;;;;4.43;2.55;;;25.50;99.90;;;;;;5094039;28;20240;-76
2022/10/17 10:18:35;;;;;;;5.82;2.28;;;26.70;99.90;;;;;;5094112;28;20211;-75
2022/10/17 10:21:08;;;;;;;3.45;2.28;;;27.70;99.90;;;;;;5093983;28;20201;-76
2022/10/17 10:23:38;;;;;;;4.18;2.33;;;28.00;99.90;;;;;;5093989;28;20258;-76
2022/10/17 10:26:23;;;;;;;6.65;2.30;;;27.30;99.90;;;;;;5093724;28;20246;-75
2022/10/17 10:28:55;;;;;;;2.67;2.30;;;28.10;99.90;;;;;;5093815;28;20281;-76
2022/10/17 10:31:31;;;;;;;5.72;2.33;;;28.60;99.90;;;;;;5093651;28;20200;-76
2022/10/17 10:34:02;;;;;;;5.68;2.10;;;28.60;99.90;;;;;;5093818;28;20279;-76
2022/10/17 10:36:44;;;;;;;8.77;2.50;;;28.70;99.90;;;;;;5093596;28;20689;-76
2022/10/17 10:39:24;;;;;;;5.28;2.20;;;29.00;99.90;;;;;;5092493;28;20203;-76
2022/10/17 10:41:50;;;;;;;5.05;2.20;;;30.00;99.90;;;;;;5093633;28;20210;-78
2022/10/17 10:44:21;;;;;;;2.97;2.17;;;31.00;99.90;;;;;;5093543;28;20323;-75
2022/10/17 10:46:48;;;;;;;6.72;2.45;;;30.30;99.90;;;;;;5093318;28;20192;-77
2022/10/17 10:49:30;;;;;;;5.95;2.65;;;30.00;99.90;;;;;;5093375;28;20243;-75
2022/10/17 10:52:00;;;;;;;5.13;2.63;;;30.20;99.90;;;;;;5093448;28;20241;-75
2022/10/17 10:54:31;;;;;;;5.05;2.97;;;30.60;99.90;;;;;;5093536;28;20199;-74
2022/10/17 10:57:02;;;;;;;4.60;2.33;;;31.20;99.90;;;;;;5093153;28;20195;-76
2022/10/17 10:59:35;;;;;;;4.22;2.35;;;31.20;99.90;;;;;;5093067;28;20196;-76
2022/10/17 11:02:10;;;;;;;4.18;2.55;;;31.20;99.90;;;;;;5093192;28;20655;-76
2022/10/17 11:04:45;;;;;;;4.55;2.40;;;31.90;99.90;;;;;;5092559;28;20249;-77
2022/10/17 11:07:18;;;;;;;5.88;2.53;;;32.40;99.90;;;;;;5092988;28;20214;-76
2022/10/17 11:09:50;;;;;;;2.50;2.22;;;32.60;98.90;;;;;;5092908;28;20863;-75
2022/10/17 11:12:24;;;;;;;4.80;2.15;;;31.80;98.10;;;;;;5093237;28;20195;-77
2022/10/17 11:14:54;;;;;;;4.18;2.40;;;31.60;98.40;;;;;;5092827;28;20312;-77
2022/10/17 11:17:29;;;;;;;4.78;2.38;;;30.70;98.10;;;;;;5093262;28;20566;-77
2022/10/17 11:20:09;;;;;;;4.60;2.70;;;30.50;98.20;;;;;;5092849;28;20243;-77
2022/10/17 11:22:39;;;;;;;4.15;2.40;;;30.60;98.00;;;;;;5092936;28;20643;-76
2022/10/17 11:25:16;;;;;;;4.28;2.50;;;30.70;98.40;;;;;;5092927;28;20253;-77
2022/10/17 11:27:43;;;;;;;4.55;2.60;;;30.30;98.80;;;;;;5092884;28;20195;-77
2022/10/17 11:30:13;;;;;;;4.75;2.78;;;30.20;99.10;;;;;;5092661;28;20228;-77
2022/10/17 11:32:43;;;;;;;5.47;3.05;;;29.80;99.30;;;;;;5092734;28;20249;-76
2022/10/17 11:35:20;;;;;;;3.35;2.40;;;30.10;99.30;;;;;;5092854;28;20199;-76
2022/10/17 11:37:52;;;;;;;6.30;2.75;;;30.50;99.20;;;;;;5092889;28;20245;-76
2022/10/17 11:40:24;;;;;;;3.72;2.50;;;32.40;97.40;;;;;;5092743;28;20200;-76
2022/10/17 11:42:57;;;;;;;3.22;2.25;;;33.40;96.40;;;;;;5092778;28;20192;-77
2022/10/17 11:45:27;;;;;;;2.90;2.45;;;33.50;94.30;;;;;;5092654;28;20199;-76
2022/10/17 11:47:58;;;;;;;4.35;2.28;;;33.40;93.80;;;;;;5092670;28;20241;-77
2022/10/17 11:50:30;;;;;;;3.00;2.38;;;32.80;94.10;;;;;;5092621;28;20417;-76
2022/10/17 11:53:01;;;;;;;2.85;2.53;;;32.60;94.10;;;;;;5092716;28;20195;-76
2022/10/17 11:55:29;;;;;;;7.05;2.40;;;33.00;94.80;;;;;;5092700;28;20192;-76
2022/10/17 11:58:12;;;;;;;2.63;2.35;;;33.80;93.70;;;;;;5092377;28;20204;-76
2022/10/17 12:00:52;;;;;;;4.32;2.60;;;34.00;93.30;;;;;;5092755;28;20233;-76
2022/10/17 12:03:43;;;;;;;4.75;2.70;;;34.10;92.80;;;;;;5092458;28;20586;-76
2022/10/17 12:06:17;;;;;;;8.07;2.63;;;35.00;91.50;;;;;;5092526;28;20203;-76
2022/10/17 12:08:53;;;;;;;5.22;3.03;;;35.90;90.50;;;;;;5092580;28;20276;-76
2022/10/17 12:11:33;;;;;;;6.00;2.55;;;36.80;87.40;;;;;;5092555;28;20288;-76
2022/10/17 12:14:00;;;;;;;3.10;2.40;;;36.90;83.90;;;;;;5092263;28;20765;-77
2022/10/17 12:16:45;;;;;;;6.55;2.50;;;37.80;83.00;;;;;;5093567;28;20272;-76
2022/10/17 12:19:25;;;;;;;4.00;2.72;;;37.70;79.70;;;;;;5095426;28;20612;-75
2022/10/17 12:21:58;;;;;;;3.50;2.55;;;37.50;77.80;;;;;;5096227;28;20260;-77
2022/10/17 12:24:35;;;;;;;5.03;2.22;;;38.60;74.20;;;;;;5096189;28;20199;-75
2022/10/17 12:27:32;;;;;;;3.13;2.83;;;38.50;71.60;;;;;;5095942;28;20218;-74
2022/10/17 12:30:01;;;;;;;3.35;2.42;;;38.20;66.60;;;;;;5096165;28;20341;-77
2022/10/17 12:32:28;;;;;;;4.03;2.30;;;38.50;66.20;;;;;;5096079;28;20241;-75
2022/10/17 12:34:57;;;;;;;2.47;2.28;;;38.70;63.30;;;;;;5095953;28;20196;-75
2022/10/17 12:41:04;;;;;;;2.60;2.20;;;37.40;62.30;;;;;;5150606;27;20276;-77
2022/10/17 12:43:56;;;;;;;4.18;2.40;;;38.30;60.30;;;;;;5131092;28;20205;-75
2022/10/17 12:46:47;;;;;;;3.38;2.05;;;39.00;59.30;;;;;;5131110;28;20201;-77
2022/10/17 12:49:44;;;;;;;2.80;2.40;;;39.80;55.90;;;;;;5131100;28;20558;-77
2022/10/17 12:52:25;;;;;;;6.72;2.47;;;39.20;55.30;;;;;;5131183;28;20217;-77
2022/10/17 12:54:59;;;;;;;5.22;2.47;;;38.60;56.70;;;;;;5130787;28;20224;-76
2022/10/17 12:57:33;;;;;;;6.40;2.33;;;39.60;54.70;;;;;;5130848;28;20198;-77
2022/10/17 13:00:14;;;;;;;3.65;2.20;;;40.60;52.80;;;;;;5130726;28;20226;-77